sensor_id;sensor_type;location;lat;lon;timestamp;pressure;altitude;pressure_sealevel;temperature;humidity
64844;BME280;51310;52.198;5.422;2023-06-22T00:02:18;102051.22;;;18.06;76.25
64844;BME280;51310;52.198;5.422;2023-06-22T00:04:44;101579.47;;;15.57;75.93
64844;BME280;51310;52.198;5.422;2023-06-22T00:07:10;101981.53;;;17.89;76.23
64844;BME280;51310;52.198;5.422;2023-06-22T00:09:36;102003.25;;;17.60;75.81
64844;BME280;51310;52.198;5.422;2023-06-22T00:12:03;101114.38;;;12.71;75.58
64844;BME280;51310;52.198;5.422;2023-06-22T00:14:29;101990.44;;;18.06;75.86
64844;BME280;51310;52.198;5.422;2023-06-22T00:16:55;101982.75;;;18.03;75.99
64844;BME280;51310;52.198;5.422;2023-06-22T00:19:23;102028.50;;;18.10;75.96
64844;BME280;51310;52.198;5.422;2023-06-22T00:21:50;101884.41;;;17.45;76.01
64844;BME280;51310;52.198;5.422;2023-06-22T00:24:20;101991.28;;;18.07;75.75
64844;BME280;51310;52.198;5.422;2023-06-22T00:26:48;101989.59;;;18.06;75.99
64844;BME280;51310;52.198;5.422;2023-06-22T00:29:14;101986.09;;;18.05;76.00
64844;BME280;51310;52.198;5.422;2023-06-22T00:31:40;101852.78;;;17.15;75.96
64844;BME280;51310;52.198;5.422;2023-06-22T00:34:06;102008.84;;;18.01;76.13
64844;BME280;51310;52.198;5.422;2023-06-22T00:36:37;101767.31;;;16.71;75.90
64844;BME280;51310;52.198;5.422;2023-06-22T00:39:03;102045.31;;;17.94;75.94
64844;BME280;51310;52.198;5.422;2023-06-22T00:41:29;101406.84;;;14.44;75.80
64844;BME280;51310;52.198;5.422;2023-06-22T00:43:55;101873.50;;;17.13;76.51
64844;BME280;51310;52.198;5.422;2023-06-22T00:46:22;101521.09;;;14.92;77.00
64844;BME280;51310;52.198;5.422;2023-06-22T00:48:49;101962.25;;;17.60;77.33
64844;BME280;51310;52.198;5.422;2023-06-22T00:51:17;101907.47;;;16.94;77.30
64844;BME280;51310;52.198;5.422;2023-06-22T00:53:43;101839.00;;;16.75;77.55
64844;BME280;51310;52.198;5.422;2023-06-22T00:56:10;101985.94;;;17.47;77.95
64844;BME280;51310;52.198;5.422;2023-06-22T00:58:38;101868.91;;;16.79;78.02
64844;BME280;51310;52.198;5.422;2023-06-22T01:01:07;101966.78;;;17.33;78.31
64844;BME280;51310;52.198;5.422;2023-06-22T01:03:33;101378.00;;;13.76;78.08
64844;BME280;51310;52.198;5.422;2023-06-22T01:06:07;101550.59;;;14.63;78.64
64844;BME280;51310;52.198;5.422;2023-06-22T01:08:56;101443.44;;;13.97;78.96
64844;BME280;51310;52.198;5.422;2023-06-22T01:11:46;102017.25;;;17.11;79.41
64844;BME280;51310;52.198;5.422;2023-06-22T01:14:35;101971.50;;;16.96;80.22
64844;BME280;51310;52.198;5.422;2023-06-22T01:17:08;101461.41;;;13.85;80.24
64844;BME280;51310;52.198;5.422;2023-06-22T01:19:50;101917.66;;;16.55;80.50
64844;BME280;51310;52.198;5.422;2023-06-22T01:22:25;101725.53;;;15.37;80.66
64844;BME280;51310;52.198;5.422;2023-06-22T01:28:23;101982.06;;;16.80;81.25
64844;BME280;51310;52.198;5.422;2023-06-22T01:31:01;101643.66;;;14.47;81.39
64844;BME280;51310;52.198;5.422;2023-06-22T01:33:34;101969.47;;;16.72;81.21
64844;BME280;51310;52.198;5.422;2023-06-22T01:36:03;101469.63;;;13.64;81.43
64844;BME280;51310;52.198;5.422;2023-06-22T01:38:32;101891.38;;;16.15;81.75
64844;BME280;51310;52.198;5.422;2023-06-22T01:41:00;101930.78;;;16.31;81.93
64844;BME280;51310;52.198;5.422;2023-06-22T01:43:27;101973.72;;;16.19;82.21
64844;BME280;51310;52.198;5.422;2023-06-22T01:45:56;101933.09;;;15.98;82.78
64844;BME280;51310;52.198;5.422;2023-06-22T01:48:24;101980.28;;;16.53;82.99
64844;BME280;51310;52.198;5.422;2023-06-22T01:50:52;101372.94;;;12.99;82.68
64844;BME280;51310;52.198;5.422;2023-06-22T01:53:22;101443.09;;;13.35;83.12
64844;BME280;51310;52.198;5.422;2023-06-22T01:55:48;101748.22;;;15.23;83.41
64844;BME280;51310;52.198;5.422;2023-06-22T01:58:15;101584.50;;;13.87;83.51
64844;BME280;51310;52.198;5.422;2023-06-22T02:00:48;101411.91;;;13.18;83.24
64844;BME280;51310;52.198;5.422;2023-06-22T02:03:23;101985.38;;;16.46;83.77
64844;BME280;51310;52.198;5.422;2023-06-22T02:06:01;101956.09;;;16.09;84.14
64844;BME280;51310;52.198;5.422;2023-06-22T02:08:41;101909.00;;;16.08;84.02
64844;BME280;51310;52.198;5.422;2023-06-22T02:11:18;101964.53;;;16.32;84.62
64844;BME280;51310;52.198;5.422;2023-06-22T02:13:46;101506.44;;;13.59;84.47
64844;BME280;51310;52.198;5.422;2023-06-22T02:16:14;101673.84;;;14.65;84.65
64844;BME280;51310;52.198;5.422;2023-06-22T02:18:49;101921.06;;;16.12;84.87
64844;BME280;51310;52.198;5.422;2023-06-22T02:21:17;101919.69;;;16.08;85.37
64844;BME280;51310;52.198;5.422;2023-06-22T02:23:43;101656.34;;;14.43;85.08
64844;BME280;51310;52.198;5.422;2023-06-22T02:26:10;101945.63;;;16.15;85.42
64844;BME280;51310;52.198;5.422;2023-06-22T02:28:36;101707.78;;;14.63;85.19
64844;BME280;51310;52.198;5.422;2023-06-22T02:31:02;101366.13;;;12.58;85.09
64844;BME280;51310;52.198;5.422;2023-06-22T02:33:28;101410.97;;;12.90;85.17
64844;BME280;51310;52.198;5.422;2023-06-22T02:35:54;101534.16;;;13.56;85.43
64844;BME280;51310;52.198;5.422;2023-06-22T02:38:20;101857.59;;;15.14;85.50
64844;BME280;51310;52.198;5.422;2023-06-22T02:40:46;101394.06;;;12.52;85.68
64844;BME280;51310;52.198;5.422;2023-06-22T02:43:13;101913.91;;;15.85;85.86
64844;BME280;51310;52.198;5.422;2023-06-22T02:45:39;101961.44;;;15.72;86.15
64844;BME280;51310;52.198;5.422;2023-06-22T02:48:05;101972.34;;;15.88;86.35
64844;BME280;51310;52.198;5.422;2023-06-22T02:50:31;101334.41;;;12.27;85.77
64844;BME280;51310;52.198;5.422;2023-06-22T02:52:57;101937.97;;;16.03;86.16
64844;BME280;51310;52.198;5.422;2023-06-22T02:55:23;101811.81;;;15.18;86.14
64844;BME280;51310;52.198;5.422;2023-06-22T02:57:49;102010.94;;;15.94;86.40
64844;BME280;51310;52.198;5.422;2023-06-22T03:00:19;101915.56;;;15.49;85.92
64844;BME280;51310;52.198;5.422;2023-06-22T03:02:49;101436.41;;;12.83;85.99
64844;BME280;51310;52.198;5.422;2023-06-22T03:05:16;101890.69;;;15.58;86.35
64844;BME280;51310;52.198;5.422;2023-06-22T03:07:44;101402.47;;;12.57;85.88
64844;BME280;51310;52.198;5.422;2023-06-22T03:10:12;101911.84;;;15.79;86.05
64844;BME280;51310;52.198;5.422;2023-06-22T03:12:40;101490.94;;;13.16;85.64
64844;BME280;51310;52.198;5.422;2023-06-22T03:15:09;101567.59;;;13.59;85.82
64844;BME280;51310;52.198;5.422;2023-06-22T03:17:38;101851.63;;;15.29;85.71
64844;BME280;51310;52.198;5.422;2023-06-22T03:20:06;101490.25;;;13.14;85.76
64844;BME280;51310;52.198;5.422;2023-06-22T03:22:39;101940.34;;;15.78;85.98
64844;BME280;51310;52.198;5.422;2023-06-22T03:25:10;101909.81;;;15.63;85.94
64844;BME280;51310;52.198;5.422;2023-06-22T03:27:42;101717.41;;;14.27;85.83
64844;BME280;51310;52.198;5.422;2023-06-22T03:30:11;101992.78;;;15.70;85.87
64844;BME280;51310;52.198;5.422;2023-06-22T03:32:37;101393.38;;;12.40;85.64
64844;BME280;51310;52.198;5.422;2023-06-22T03:35:03;101535.75;;;13.30;85.87
64844;BME280;51310;52.198;5.422;2023-06-22T03:37:31;101921.88;;;15.67;86.08
64844;BME280;51310;52.198;5.422;2023-06-22T03:39:57;101927.88;;;15.69;86.22
64844;BME280;51310;52.198;5.422;2023-06-22T03:42:23;101943.97;;;15.40;86.18
64844;BME280;51310;52.198;5.422;2023-06-22T03:44:49;101386.38;;;12.49;86.00
64844;BME280;51310;52.198;5.422;2023-06-22T03:47:15;101920.34;;;15.65;86.19
64844;BME280;51310;52.198;5.422;2023-06-22T03:49:41;101300.84;;;11.87;85.90
64844;BME280;51310;52.198;5.422;2023-06-22T03:52:07;101508.31;;;13.10;85.88
64844;BME280;51310;52.198;5.422;2023-06-22T03:54:33;101919.50;;;15.64;86.31
64844;BME280;51310;52.198;5.422;2023-06-22T03:56:59;101920.34;;;15.65;86.34
64844;BME280;51310;52.198;5.422;2023-06-22T03:59:26;101915.38;;;15.70;86.57
64844;BME280;51310;52.198;5.422;2023-06-22T04:01:52;101956.94;;;15.72;86.41
64844;BME280;51310;52.198;5.422;2023-06-22T04:04:18;101378.13;;;12.52;86.10
64844;BME280;51310;52.198;5.422;2023-06-22T04:06:44;101922.06;;;15.83;86.37
64844;BME280;51310;52.198;5.422;2023-06-22T04:09:10;101975.06;;;15.78;86.42
64844;BME280;51310;52.198;5.422;2023-06-22T04:11:36;101912.78;;;15.87;86.09
64844;BME280;51310;52.198;5.422;2023-06-22T04:14:02;101334.13;;;12.30;85.96
64844;BME280;51310;52.198;5.422;2023-06-22T04:16:28;101303.69;;;12.15;85.98
64844;BME280;51310;52.198;5.422;2023-06-22T04:18:54;101320.72;;;12.22;86.05
64844;BME280;51310;52.198;5.422;2023-06-22T04:21:20;101255.75;;;11.87;85.87
64844;BME280;51310;52.198;5.422;2023-06-22T04:23:46;101907.34;;;15.79;86.28
64844;BME280;51310;52.198;5.422;2023-06-22T04:26:13;101898.03;;;15.83;86.21
64844;BME280;51310;52.198;5.422;2023-06-22T04:28:42;101460.88;;;13.25;86.08
64844;BME280;51310;52.198;5.422;2023-06-22T04:31:08;101342.09;;;12.59;85.78
64844;BME280;51310;52.198;5.422;2023-06-22T04:33:34;101283.16;;;12.27;86.19
64844;BME280;51310;52.198;5.422;2023-06-22T04:36:00;101872.03;;;15.85;86.35
64844;BME280;51310;52.198;5.422;2023-06-22T04:38:29;101905.34;;;16.09;86.60
64844;BME280;51310;52.198;5.422;2023-06-22T04:40:58;101897.13;;;16.20;86.57
64844;BME280;51310;52.198;5.422;2023-06-22T04:43:26;101382.56;;;13.10;86.02
64844;BME280;51310;52.198;5.422;2023-06-22T04:45:58;101668.28;;;14.86;86.40
64844;BME280;51310;52.198;5.422;2023-06-22T04:48:29;101343.44;;;12.83;85.88
64844;BME280;51310;52.198;5.422;2023-06-22T04:51:02;101827.94;;;15.64;86.07
64844;BME280;51310;52.198;5.422;2023-06-22T04:53:31;101878.78;;;16.25;86.20
64844;BME280;51310;52.198;5.422;2023-06-22T04:55:57;101657.31;;;15.34;85.79
64844;BME280;51310;52.198;5.422;2023-06-22T04:58:23;101872.44;;;16.80;85.96
64844;BME280;51310;52.198;5.422;2023-06-22T05:00:52;101909.22;;;17.29;85.48
64844;BME280;51310;52.198;5.422;2023-06-22T05:03:18;101874.91;;;17.25;84.91
64844;BME280;51310;52.198;5.422;2023-06-22T05:05:44;101329.75;;;14.25;84.19
64844;BME280;51310;52.198;5.422;2023-06-22T05:08:10;101768.69;;;16.83;84.24
64844;BME280;51310;52.198;5.422;2023-06-22T05:10:36;101407.13;;;14.68;83.77
64844;BME280;51310;52.198;5.422;2023-06-22T05:13:02;101806.69;;;17.29;83.73
64844;BME280;51310;52.198;5.422;2023-06-22T05:15:28;101879.94;;;17.28;83.57
64844;BME280;51310;52.198;5.422;2023-06-22T05:17:56;101808.41;;;17.38;83.46
64844;BME280;51310;52.198;5.422;2023-06-22T05:20:22;101800.56;;;17.37;83.18
64844;BME280;51310;52.198;5.422;2023-06-22T05:22:48;101900.03;;;18.00;83.41
64844;BME280;51310;52.198;5.422;2023-06-22T05:25:14;101821.38;;;17.59;82.92
64844;BME280;51310;52.198;5.422;2023-06-22T05:27:40;101755.91;;;17.37;82.79
64844;BME280;51310;52.198;5.422;2023-06-22T05:30:07;101898.59;;;18.46;82.44
64844;BME280;51310;52.198;5.422;2023-06-22T05:32:35;101311.84;;;15.22;81.84
64844;BME280;51310;52.198;5.422;2023-06-22T05:35:03;101877.03;;;18.64;81.68
64844;BME280;51310;52.198;5.422;2023-06-22T05:37:30;101297.44;;;15.07;80.65
64844;BME280;51310;52.198;5.422;2023-06-22T05:39:56;101342.47;;;15.44;80.50
64844;BME280;51310;52.198;5.422;2023-06-22T05:42:23;101338.41;;;15.06;80.34
64844;BME280;51310;52.198;5.422;2023-06-22T05:44:52;101902.44;;;18.60;80.92
64844;BME280;51310;52.198;5.422;2023-06-22T05:47:18;101426.63;;;15.65;80.24
64844;BME280;51310;52.198;5.422;2023-06-22T05:49:44;101428.72;;;15.53;80.02
64844;BME280;51310;52.198;5.422;2023-06-22T05:52:10;101910.00;;;18.40;80.41
64844;BME280;51310;52.198;5.422;2023-06-22T05:54:37;101740.31;;;17.32;80.38
64844;BME280;51310;52.198;5.422;2023-06-22T05:57:04;101771.38;;;17.68;80.09
64844;BME280;51310;52.198;5.422;2023-06-22T05:59:30;101358.91;;;15.31;79.83
64844;BME280;51310;52.198;5.422;2023-06-22T06:01:56;101849.03;;;18.50;79.86
64844;BME280;51310;52.198;5.422;2023-06-22T06:04:22;101901.97;;;18.89;79.38
64844;BME280;51310;52.198;5.422;2023-06-22T06:06:48;101950.59;;;19.11;78.90
64844;BME280;51310;52.198;5.422;2023-06-22T06:09:14;101413.94;;;16.01;78.38
64844;BME280;51310;52.198;5.422;2023-06-22T06:11:40;101833.09;;;18.73;78.18
64844;BME280;51310;52.198;5.422;2023-06-22T06:14:06;101896.38;;;19.31;77.77
64844;BME280;51310;52.198;5.422;2023-06-22T06:16:32;101771.25;;;18.67;77.21
64844;BME280;51310;52.198;5.422;2023-06-22T06:18:58;101340.88;;;16.26;76.79
64844;BME280;51310;52.198;5.422;2023-06-22T06:21:24;101874.13;;;19.62;76.14
64844;BME280;51310;52.198;5.422;2023-06-22T06:23:50;101907.19;;;20.33;75.05
64844;BME280;51310;52.198;5.422;2023-06-22T06:26:16;101870.41;;;20.02;74.47
64844;BME280;51310;52.198;5.422;2023-06-22T06:28:43;101908.75;;;20.19;73.97
64844;BME280;51310;52.198;5.422;2023-06-22T06:31:09;101360.28;;;17.01;73.82
64844;BME280;51310;52.198;5.422;2023-06-22T06:33:37;101873.06;;;19.79;73.71
64844;BME280;51310;52.198;5.422;2023-06-22T06:36:03;101829.72;;;19.35;73.30
64844;BME280;51310;52.198;5.422;2023-06-22T06:38:33;101652.09;;;19.00;73.17
64844;BME280;51310;52.198;5.422;2023-06-22T06:40:59;101477.63;;;18.01;72.45
64844;BME280;51310;52.198;5.422;2023-06-22T06:43:25;101933.88;;;20.65;72.54
64844;BME280;51310;52.198;5.422;2023-06-22T06:45:51;101893.09;;;20.54;71.75
64844;BME280;51310;52.198;5.422;2023-06-22T06:48:17;101263.88;;;16.87;71.24
64844;BME280;51310;52.198;5.422;2023-06-22T06:50:43;101862.34;;;20.71;70.87
64844;BME280;51310;52.198;5.422;2023-06-22T06:53:10;101740.88;;;20.07;70.36
64844;BME280;51310;52.198;5.422;2023-06-22T06:55:36;101494.56;;;18.63;69.76
64844;BME280;51310;52.198;5.422;2023-06-22T06:58:02;101320.66;;;17.52;69.67
64844;BME280;51310;52.198;5.422;2023-06-22T07:00:33;101620.78;;;19.47;69.87
64844;BME280;51310;52.198;5.422;2023-06-22T07:02:59;101920.22;;;21.27;69.61
64844;BME280;51310;52.198;5.422;2023-06-22T07:05:25;101786.94;;;20.79;69.15
64844;BME280;51310;52.198;5.422;2023-06-22T07:07:51;101872.38;;;21.59;68.77
64844;BME280;51310;52.198;5.422;2023-06-22T07:10:17;101876.63;;;21.53;68.54
64844;BME280;51310;52.198;5.422;2023-06-22T07:12:42;101760.03;;;20.79;68.19
64844;BME280;51310;52.198;5.422;2023-06-22T07:15:10;101904.06;;;21.27;67.97
64844;BME280;51310;52.198;5.422;2023-06-22T07:17:37;101844.88;;;21.19;67.56
64844;BME280;51310;52.198;5.422;2023-06-22T07:20:07;101822.31;;;21.35;67.49
64844;BME280;51310;52.198;5.422;2023-06-22T07:22:44;101747.88;;;20.83;67.45
64844;BME280;51310;52.198;5.422;2023-06-22T07:25:10;101873.56;;;21.56;67.56
64844;BME280;51310;52.198;5.422;2023-06-22T07:27:56;101654.09;;;20.50;66.42
64844;BME280;51310;52.198;5.422;2023-06-22T07:30:28;101768.09;;;21.08;66.61
64844;BME280;51310;52.198;5.422;2023-06-22T07:32:55;101937.00;;;21.74;66.05
64844;BME280;51310;52.198;5.422;2023-06-22T07:35:21;101668.38;;;20.51;65.73
64844;BME280;51310;52.198;5.422;2023-06-22T07:37:47;101366.56;;;18.65;65.27
64844;BME280;51310;52.198;5.422;2023-06-22T07:40:13;101841.03;;;21.73;65.59
64844;BME280;51310;52.198;5.422;2023-06-22T07:42:39;101863.03;;;21.91;64.68
64844;BME280;51310;52.198;5.422;2023-06-22T07:45:06;101664.22;;;20.63;64.82
64844;BME280;51310;52.198;5.422;2023-06-22T07:47:34;101918.91;;;22.18;63.96
64844;BME280;51310;52.198;5.422;2023-06-22T07:50:02;101799.97;;;21.71;63.68
64844;BME280;51310;52.198;5.422;2023-06-22T07:52:29;101846.44;;;22.09;62.74
64844;BME280;51310;52.198;5.422;2023-06-22T07:54:56;101752.97;;;21.58;62.92
64844;BME280;51310;52.198;5.422;2023-06-22T07:57:22;101816.56;;;22.10;62.82
64844;BME280;51310;52.198;5.422;2023-06-22T07:59:48;101846.38;;;22.45;62.73
64844;BME280;51310;52.198;5.422;2023-06-22T08:02:14;101370.81;;;19.42;61.87
64844;BME280;51310;52.198;5.422;2023-06-22T08:04:40;101844.88;;;22.21;62.13
64844;BME280;51310;52.198;5.422;2023-06-22T08:07:07;101323.44;;;19.19;61.72
64844;BME280;51310;52.198;5.422;2023-06-22T08:09:33;101334.44;;;19.54;61.95
64844;BME280;51310;52.198;5.422;2023-06-22T08:11:59;101402.78;;;20.17;61.63
64844;BME280;51310;52.198;5.422;2023-06-22T08:14:27;101736.97;;;22.42;61.01
64844;BME280;51310;52.198;5.422;2023-06-22T08:16:55;101327.59;;;20.02;60.00
64844;BME280;51310;52.198;5.422;2023-06-22T08:19:21;101875.59;;;23.19;60.19
64844;BME280;51310;52.198;5.422;2023-06-22T08:21:47;101709.50;;;22.60;59.69
64844;BME280;51310;52.198;5.422;2023-06-22T08:24:13;101815.03;;;23.00;58.83
64844;BME280;51310;52.198;5.422;2023-06-22T08:26:39;101808.59;;;23.01;58.69
64844;BME280;51310;52.198;5.422;2023-06-22T08:29:05;101809.75;;;23.26;58.33
64844;BME280;51310;52.198;5.422;2023-06-22T08:31:32;101836.25;;;23.44;57.80
64844;BME280;51310;52.198;5.422;2023-06-22T08:34:00;101799.88;;;23.47;56.86
64844;BME280;51310;52.198;5.422;2023-06-22T08:36:26;101618.09;;;22.44;57.26
64844;BME280;51310;52.198;5.422;2023-06-22T08:38:54;101660.69;;;22.90;56.87
64844;BME280;51310;52.198;5.422;2023-06-22T08:41:27;101819.56;;;23.34;56.41
64844;BME280;51310;52.198;5.422;2023-06-22T08:43:53;101440.63;;;21.44;56.42
64844;BME280;51310;52.198;5.422;2023-06-22T08:46:19;101757.56;;;22.78;55.89
64844;BME280;51310;52.198;5.422;2023-06-22T08:48:49;101785.91;;;23.30;55.33
64844;BME280;51310;52.198;5.422;2023-06-22T08:51:16;101684.25;;;22.74;55.86
64844;BME280;51310;52.198;5.422;2023-06-22T08:53:42;101762.91;;;23.06;55.68
64844;BME280;51310;52.198;5.422;2023-06-22T08:56:10;101277.69;;;20.14;55.07
64844;BME280;51310;52.198;5.422;2023-06-22T08:58:36;101787.78;;;23.29;54.16
64844;BME280;51310;52.198;5.422;2023-06-22T09:01:02;101763.38;;;23.64;54.74
64844;BME280;51310;52.198;5.422;2023-06-22T09:03:28;101689.38;;;23.04;54.38
64844;BME280;51310;52.198;5.422;2023-06-22T09:05:54;101770.13;;;23.33;52.46
64844;BME280;51310;52.198;5.422;2023-06-22T09:08:20;101784.88;;;23.37;52.31
64844;BME280;51310;52.198;5.422;2023-06-22T09:10:46;101645.41;;;22.75;51.52
64844;BME280;51310;52.198;5.422;2023-06-22T09:13:12;101643.28;;;22.99;52.05
64844;BME280;51310;52.198;5.422;2023-06-22T09:15:38;101687.38;;;23.19;53.16
64844;BME280;51310;52.198;5.422;2023-06-22T09:18:04;101318.66;;;20.87;52.67
64844;BME280;51310;52.198;5.422;2023-06-22T09:20:30;101764.47;;;23.89;52.40
64844;BME280;51310;52.198;5.422;2023-06-22T09:22:56;101677.66;;;23.31;52.03
64844;BME280;51310;52.198;5.422;2023-06-22T09:25:22;101710.16;;;23.71;51.77
64844;BME280;51310;52.198;5.422;2023-06-22T09:27:48;101699.97;;;23.80;51.54
64844;BME280;51310;52.198;5.422;2023-06-22T09:30:14;101753.47;;;24.11;51.48
64844;BME280;51310;52.198;5.422;2023-06-22T09:32:40;101766.38;;;24.09;50.91
64844;BME280;51310;52.198;5.422;2023-06-22T09:35:07;101670.47;;;23.65;50.69
64844;BME280;51310;52.198;5.422;2023-06-22T09:37:34;101321.97;;;21.58;50.89
64844;BME280;51310;52.198;5.422;2023-06-22T09:40:00;101674.81;;;23.92;49.92
64844;BME280;51310;52.198;5.422;2023-06-22T09:42:26;101262.28;;;21.48;49.81
64844;BME280;51310;52.198;5.422;2023-06-22T09:44:51;101733.78;;;24.95;49.27
64844;BME280;51310;52.198;5.422;2023-06-22T09:47:17;101766.56;;;24.80;51.57
64844;BME280;51310;52.198;5.422;2023-06-22T09:49:43;101760.09;;;24.74;53.69
64844;BME280;51310;52.198;5.422;2023-06-22T09:52:09;101761.78;;;24.69;54.50
64844;BME280;51310;52.198;5.422;2023-06-22T09:54:36;101721.00;;;24.57;54.47
64844;BME280;51310;52.198;5.422;2023-06-22T09:57:03;101751.34;;;24.79;54.53
64844;BME280;51310;52.198;5.422;2023-06-22T09:59:29;101614.31;;;23.80;55.07
64844;BME280;51310;52.198;5.422;2023-06-22T10:01:54;101661.72;;;23.96;55.50
64844;BME280;51310;52.198;5.422;2023-06-22T10:04:20;101234.31;;;21.08;55.47
64844;BME280;51310;52.198;5.422;2023-06-22T10:06:46;101324.50;;;21.66;55.88
64844;BME280;51310;52.198;5.422;2023-06-22T10:09:13;101732.88;;;24.03;57.11
64844;BME280;51310;52.198;5.422;2023-06-22T10:11:39;101755.97;;;24.19;57.70
64844;BME280;51310;52.198;5.422;2023-06-22T10:14:04;101743.06;;;24.14;57.67
64844;BME280;51310;52.198;5.422;2023-06-22T10:16:31;101705.38;;;23.80;57.40
64844;BME280;51310;52.198;5.422;2023-06-22T10:18:58;101673.78;;;23.74;57.93
64844;BME280;51310;52.198;5.422;2023-06-22T10:21:24;101737.88;;;24.06;57.95
64844;BME280;51310;52.198;5.422;2023-06-22T10:23:52;101748.00;;;23.71;57.89
64844;BME280;51310;52.198;5.422;2023-06-22T10:26:18;101615.09;;;23.21;57.85
64844;BME280;51310;52.198;5.422;2023-06-22T10:28:44;101745.34;;;23.98;58.28
64844;BME280;51310;52.198;5.422;2023-06-22T10:31:10;101734.06;;;23.67;58.85
64844;BME280;51310;52.198;5.422;2023-06-22T10:33:36;101684.69;;;23.19;58.95
64844;BME280;51310;52.198;5.422;2023-06-22T10:36:02;101388.34;;;21.31;58.98
64844;BME280;51310;52.198;5.422;2023-06-22T10:38:28;101732.91;;;23.35;58.57
64844;BME280;51310;52.198;5.422;2023-06-22T10:40:54;101669.38;;;22.85;58.41
64844;BME280;51310;52.198;5.422;2023-06-22T10:43:20;101759.47;;;23.25;58.57
64844;BME280;51310;52.198;5.422;2023-06-22T10:45:46;101216.50;;;19.88;58.00
64844;BME280;51310;52.198;5.422;2023-06-22T10:48:11;101675.97;;;22.83;58.16
64844;BME280;51310;52.198;5.422;2023-06-22T10:50:37;101760.31;;;23.26;58.46
64844;BME280;51310;52.198;5.422;2023-06-22T10:53:03;101758.22;;;23.28;58.48
64844;BME280;51310;52.198;5.422;2023-06-22T10:55:29;101763.47;;;23.29;58.57
64844;BME280;51310;52.198;5.422;2023-06-22T10:57:55;101289.69;;;20.40;58.55
64844;BME280;51310;52.198;5.422;2023-06-22T11:00:21;101765.34;;;23.35;58.49
64844;BME280;51310;52.198;5.422;2023-06-22T11:02:47;101759.13;;;22.94;58.59
64844;BME280;51310;52.198;5.422;2023-06-22T11:05:13;101624.72;;;22.41;59.12
64844;BME280;51310;52.198;5.422;2023-06-22T11:07:43;101683.75;;;22.92;58.94
64844;BME280;51310;52.198;5.422;2023-06-22T11:10:10;101736.41;;;23.23;59.22
64844;BME280;51310;52.198;5.422;2023-06-22T11:12:37;101113.44;;;19.32;58.92
64844;BME280;51310;52.198;5.422;2023-06-22T11:15:03;101758.56;;;23.59;59.08
64844;BME280;51310;52.198;5.422;2023-06-22T11:17:30;101658.31;;;22.80;58.28
64844;BME280;51310;52.198;5.422;2023-06-22T11:19:56;101813.84;;;23.50;58.29
64844;BME280;51310;52.198;5.422;2023-06-22T11:22:22;101229.38;;;20.21;57.92
64844;BME280;51310;52.198;5.422;2023-06-22T11:24:47;101740.81;;;23.30;58.52
64844;BME280;51310;52.198;5.422;2023-06-22T11:27:15;101694.38;;;23.00;58.19
64844;BME280;51310;52.198;5.422;2023-06-22T11:29:41;101675.25;;;23.02;58.22
64844;BME280;51310;52.198;5.422;2023-06-22T11:32:07;101258.03;;;20.57;58.35
64844;BME280;51310;52.198;5.422;2023-06-22T11:34:33;101652.06;;;23.21;58.52
64844;BME280;51310;52.198;5.422;2023-06-22T11:36:59;101733.25;;;23.67;58.28
64844;BME280;51310;52.198;5.422;2023-06-22T11:39:25;101379.81;;;21.62;58.35
64844;BME280;51310;52.198;5.422;2023-06-22T11:41:51;101706.66;;;23.77;58.54
64844;BME280;51310;52.198;5.422;2023-06-22T11:44:17;101719.97;;;23.85;58.61
64844;BME280;51310;52.198;5.422;2023-06-22T11:46:43;101152.78;;;20.38;58.23
64844;BME280;51310;52.198;5.422;2023-06-22T11:49:09;101371.38;;;21.79;58.16
64844;BME280;51310;52.198;5.422;2023-06-22T11:51:35;101718.53;;;23.83;57.61
64844;BME280;51310;52.198;5.422;2023-06-22T11:54:00;101622.59;;;23.46;57.24
64844;BME280;51310;52.198;5.422;2023-06-22T11:56:27;101707.69;;;24.09;57.47
64844;BME280;51310;52.198;5.422;2023-06-22T11:58:53;101227.75;;;21.24;56.90
64844;BME280;51310;52.198;5.422;2023-06-22T12:01:19;101614.97;;;23.62;56.97
64844;BME280;51310;52.198;5.422;2023-06-22T12:03:46;101698.13;;;24.07;57.23
64844;BME280;51310;52.198;5.422;2023-06-22T12:06:13;101350.72;;;21.99;56.95
64844;BME280;51310;52.198;5.422;2023-06-22T12:08:39;101668.59;;;23.99;56.72
64844;BME280;51310;52.198;5.422;2023-06-22T12:11:05;101251.50;;;21.55;56.13
64844;BME280;51310;52.198;5.422;2023-06-22T12:13:31;101645.69;;;23.81;55.77
64844;BME280;51310;52.198;5.422;2023-06-22T12:15:57;101700.84;;;24.07;55.89
64844;BME280;51310;52.198;5.422;2023-06-22T12:18:23;101544.25;;;23.46;56.14
64844;BME280;51310;52.198;5.422;2023-06-22T12:20:50;101705.81;;;23.97;56.32
64844;BME280;51310;52.198;5.422;2023-06-22T12:23:15;101621.13;;;23.43;56.19
64844;BME280;51310;52.198;5.422;2023-06-22T12:25:42;101683.78;;;24.06;56.60
64844;BME280;51310;52.198;5.422;2023-06-22T12:28:08;101227.22;;;21.35;56.37
64844;BME280;51310;52.198;5.422;2023-06-22T12:31:07;101667.34;;;23.81;55.87
64844;BME280;51310;52.198;5.422;2023-06-22T12:33:33;101685.22;;;24.02;55.61
64844;BME280;51310;52.198;5.422;2023-06-22T12:35:59;101690.22;;;23.65;56.11
64844;BME280;51310;52.198;5.422;2023-06-22T12:38:25;101370.81;;;21.97;55.76
64844;BME280;51310;52.198;5.422;2023-06-22T12:40:51;101680.00;;;23.81;55.51
64844;BME280;51310;52.198;5.422;2023-06-22T12:43:18;101513.00;;;22.77;55.79
64844;BME280;51310;52.198;5.422;2023-06-22T12:45:44;101684.41;;;23.75;56.29
64844;BME280;51310;52.198;5.422;2023-06-22T12:48:10;101603.22;;;23.16;55.83
64844;BME280;51310;52.198;5.422;2023-06-22T12:50:36;101206.22;;;20.76;56.13
64844;BME280;51310;52.198;5.422;2023-06-22T12:53:02;101708.47;;;23.50;56.30
64844;BME280;51310;52.198;5.422;2023-06-22T12:55:29;101665.38;;;23.35;56.84